sensor_id;sensor_type;location;lat;lon;timestamp;pressure;altitude;pressure_sealevel;temperature;humidity
70930;BME280;58588;48.102;19.682;2023-10-13T00:01:36;99652.91;;;17.56;100.00
70930;BME280;58588;48.102;19.682;2023-10-13T00:04:39;99645.72;;;17.44;100.00
70930;BME280;58588;48.102;19.682;2023-10-13T00:07:42;99650.88;;;17.33;100.00
70930;BME280;58588;48.102;19.682;2023-10-13T00:10:44;99641.06;;;17.26;100.00
70930;BME280;58588;48.102;19.682;2023-10-13T00:13:48;99635.84;;;17.24;100.00
70930;BME280;58588;48.102;19.682;2023-10-13T00:16:51;99634.34;;;17.28;100.00
70930;BME280;58588;48.102;19.682;2023-10-13T00:20:06;99638.16;;;17.27;100.00
70930;BME280;58588;48.102;19.682;2023-10-13T00:23:13;99635.34;;;17.16;100.00
70930;BME280;58588;48.102;19.682;2023-10-13T00:26:15;99643.34;;;17.10;100.00
70930;BME280;58588;48.102;19.682;2023-10-13T00:29:18;99639.47;;;17.00;100.00
70930;BME280;58588;48.102;19.682;2023-10-13T00:32:29;99639.66;;;17.23;100.00
70930;BME280;58588;48.102;19.682;2023-10-13T00:35:33;99642.94;;;17.07;100.00
70930;BME280;58588;48.102;19.682;2023-10-13T00:38:42;99633.22;;;17.18;100.00
70930;BME280;58588;48.102;19.682;2023-10-13T00:41:48;99641.31;;;17.24;100.00
70930;BME280;58588;48.102;19.682;2023-10-13T00:44:59;99635.34;;;17.16;100.00
70930;BME280;58588;48.102;19.682;2023-10-13T00:48:02;99625.19;;;17.04;100.00
70930;BME280;58588;48.102;19.682;2023-10-13T00:51:12;99618.75;;;16.67;100.00
70930;BME280;58588;48.102;19.682;2023-10-13T00:54:34;99623.06;;;16.56;100.00
70930;BME280;58588;48.102;19.682;2023-10-13T00:57:38;99621.03;;;16.77;100.00
70930;BME280;58588;48.102;19.682;2023-10-13T01:00:41;99623.50;;;17.03;100.00
70930;BME280;58588;48.102;19.682;2023-10-13T01:03:49;99622.91;;;17.20;100.00
70930;BME280;58588;48.102;19.682;2023-10-13T01:06:57;99624.72;;;17.26;100.00
70930;BME280;58588;48.102;19.682;2023-10-13T01:10:00;99620.66;;;17.35;100.00
70930;BME280;58588;48.102;19.682;2023-10-13T01:13:04;99604.28;;;17.53;100.00
70930;BME280;58588;48.102;19.682;2023-10-13T01:16:07;99602.16;;;17.55;100.00
70930;BME280;58588;48.102;19.682;2023-10-13T01:19:08;99611.09;;;17.62;100.00
70930;BME280;58588;48.102;19.682;2023-10-13T01:22:13;99612.78;;;17.82;100.00
70930;BME280;58588;48.102;19.682;2023-10-13T01:25:17;99621.88;;;17.76;100.00
70930;BME280;58588;48.102;19.682;2023-10-13T01:28:20;99623.06;;;17.61;100.00
70930;BME280;58588;48.102;19.682;2023-10-13T01:31:22;99626.88;;;17.79;100.00
70930;BME280;58588;48.102;19.682;2023-10-13T01:34:30;99622.16;;;17.86;100.00
70930;BME280;58588;48.102;19.682;2023-10-13T01:37:34;99616.34;;;17.82;100.00
70930;BME280;58588;48.102;19.682;2023-10-13T01:40:36;99634.13;;;17.66;100.00
70930;BME280;58588;48.102;19.682;2023-10-13T01:43:38;99647.94;;;17.72;100.00
70930;BME280;58588;48.102;19.682;2023-10-13T01:46:39;99651.16;;;17.80;100.00
70930;BME280;58588;48.102;19.682;2023-10-13T01:49:42;99646.88;;;17.73;100.00
70930;BME280;58588;48.102;19.682;2023-10-13T01:52:47;99657.09;;;17.77;100.00
70930;BME280;58588;48.102;19.682;2023-10-13T01:55:50;99646.78;;;17.79;100.00
70930;BME280;58588;48.102;19.682;2023-10-13T01:58:51;99651.41;;;17.79;100.00
70930;BME280;58588;48.102;19.682;2023-10-13T02:01:54;99642.88;;;17.69;100.00
70930;BME280;58588;48.102;19.682;2023-10-13T02:04:58;99638.69;;;17.73;100.00
70930;BME280;58588;48.102;19.682;2023-10-13T02:08:01;99655.09;;;17.66;100.00
70930;BME280;58588;48.102;19.682;2023-10-13T02:11:04;99655.44;;;17.76;100.00
70930;BME280;58588;48.102;19.682;2023-10-13T02:14:07;99633.06;;;17.49;100.00
70930;BME280;58588;48.102;19.682;2023-10-13T02:17:12;99640.69;;;17.04;100.00
70930;BME280;58588;48.102;19.682;2023-10-13T02:20:14;99643.59;;;17.27;100.00
70930;BME280;58588;48.102;19.682;2023-10-13T02:23:16;99643.81;;;17.44;100.00
70930;BME280;58588;48.102;19.682;2023-10-13T02:26:19;99639.41;;;17.43;100.00
70930;BME280;58588;48.102;19.682;2023-10-13T02:29:30;99629.00;;;17.40;100.00
70930;BME280;58588;48.102;19.682;2023-10-13T02:32:39;99628.09;;;17.28;100.00
70930;BME280;58588;48.102;19.682;2023-10-13T02:35:43;99621.66;;;17.41;100.00
70930;BME280;58588;48.102;19.682;2023-10-13T02:38:51;99620.34;;;17.43;100.00
70930;BME280;58588;48.102;19.682;2023-10-13T02:41:54;99625.34;;;17.64;100.00
70930;BME280;58588;48.102;19.682;2023-10-13T02:44:57;99631.78;;;17.70;100.00
70930;BME280;58588;48.102;19.682;2023-10-13T02:47:58;99632.69;;;17.64;100.00
70930;BME280;58588;48.102;19.682;2023-10-13T02:51:13;99650.72;;;17.65;100.00
70930;BME280;58588;48.102;19.682;2023-10-13T02:54:17;99659.81;;;17.41;100.00
70930;BME280;58588;48.102;19.682;2023-10-13T02:57:21;99665.69;;;17.37;100.00
70930;BME280;58588;48.102;19.682;2023-10-13T03:00:23;99667.25;;;17.27;100.00
70930;BME280;58588;48.102;19.682;2023-10-13T03:03:32;99656.84;;;17.60;100.00
70930;BME280;58588;48.102;19.682;2023-10-13T03:06:35;99667.63;;;17.74;100.00
70930;BME280;58588;48.102;19.682;2023-10-13T03:09:40;99665.19;;;17.84;100.00
70930;BME280;58588;48.102;19.682;2023-10-13T03:12:51;99658.16;;;17.76;100.00
70930;BME280;58588;48.102;19.682;2023-10-13T03:15:53;99650.03;;;17.51;100.00
70930;BME280;58588;48.102;19.682;2023-10-13T03:18:55;99640.47;;;17.60;100.00
70930;BME280;58588;48.102;19.682;2023-10-13T03:21:57;99625.44;;;17.58;100.00
70930;BME280;58588;48.102;19.682;2023-10-13T03:25:07;99616.41;;;17.39;100.00
70930;BME280;58588;48.102;19.682;2023-10-13T03:28:15;99611.03;;;17.14;100.00
70930;BME280;58588;48.102;19.682;2023-10-13T03:31:24;99617.19;;;17.28;100.00
70930;BME280;58588;48.102;19.682;2023-10-13T03:34:28;99613.75;;;17.51;100.00
70930;BME280;58588;48.102;19.682;2023-10-13T03:37:30;99610.19;;;17.50;100.00
70930;BME280;58588;48.102;19.682;2023-10-13T03:40:39;99614.38;;;17.53;100.00
70930;BME280;58588;48.102;19.682;2023-10-13T03:43:42;99622.25;;;17.24;100.00
70930;BME280;58588;48.102;19.682;2023-10-13T03:46:52;99622.31;;;17.36;100.00
70930;BME280;58588;48.102;19.682;2023-10-13T03:49:55;99615.50;;;17.45;100.00
70930;BME280;58588;48.102;19.682;2023-10-13T03:53:15;99623.75;;;17.57;100.00
70930;BME280;58588;48.102;19.682;2023-10-13T03:56:19;99617.63;;;17.43;100.00
70930;BME280;58588;48.102;19.682;2023-10-13T03:59:28;99617.34;;;17.51;100.00
70930;BME280;58588;48.102;19.682;2023-10-13T04:02:36;99628.13;;;17.21;100.00
70930;BME280;58588;48.102;19.682;2023-10-13T04:05:38;99630.47;;;17.18;100.00
70930;BME280;58588;48.102;19.682;2023-10-13T04:08:44;99618.44;;;17.44;100.00
70930;BME280;58588;48.102;19.682;2023-10-13T04:11:49;99597.56;;;17.37;100.00
70930;BME280;58588;48.102;19.682;2023-10-13T04:15:16;99604.31;;;17.17;100.00
70930;BME280;58588;48.102;19.682;2023-10-13T04:18:23;99617.03;;;17.23;100.00
70930;BME280;58588;48.102;19.682;2023-10-13T04:21:34;99614.06;;;17.24;100.00
70930;BME280;58588;48.102;19.682;2023-10-13T04:24:55;99623.22;;;17.30;100.00
70930;BME280;58588;48.102;19.682;2023-10-13T04:28:22;99625.19;;;17.41;100.00
70930;BME280;58588;48.102;19.682;2023-10-13T04:31:39;99627.84;;;17.48;100.00
70930;BME280;58588;48.102;19.682;2023-10-13T04:35:02;99613.53;;;17.34;100.00
70930;BME280;58588;48.102;19.682;2023-10-13T04:38:10;99621.00;;;17.38;100.00
70930;BME280;58588;48.102;19.682;2023-10-13T04:41:20;99616.63;;;17.56;100.00
70930;BME280;58588;48.102;19.682;2023-10-13T04:44:23;99624.44;;;17.52;100.00
70930;BME280;58588;48.102;19.682;2023-10-13T04:47:40;99612.78;;;17.63;100.00
70930;BME280;58588;48.102;19.682;2023-10-13T04:50:49;99623.22;;;17.66;100.00
70930;BME280;58588;48.102;19.682;2023-10-13T04:53:54;99622.47;;;17.59;100.00
70930;BME280;58588;48.102;19.682;2023-10-13T04:57:04;99626.28;;;17.77;100.00
70930;BME280;58588;48.102;19.682;2023-10-13T05:00:32;99630.94;;;17.70;100.00
70930;BME280;58588;48.102;19.682;2023-10-13T05:03:52;99631.16;;;17.68;100.00
70930;BME280;58588;48.102;19.682;2023-10-13T05:07:09;99639.66;;;17.60;100.00
70930;BME280;58588;48.102;19.682;2023-10-13T05:10:28;99641.88;;;17.51;100.00
70930;BME280;58588;48.102;19.682;2023-10-13T05:13:47;99647.50;;;17.31;100.00
70930;BME280;58588;48.102;19.682;2023-10-13T05:17:07;99657.31;;;17.57;100.00
70930;BME280;58588;48.102;19.682;2023-10-13T05:20:27;99662.53;;;17.59;100.00
70930;BME280;58588;48.102;19.682;2023-10-13T05:24:01;99660.78;;;17.64;100.00
70930;BME280;58588;48.102;19.682;2023-10-13T05:27:21;99671.03;;;17.87;100.00
70930;BME280;58588;48.102;19.682;2023-10-13T05:30:40;99676.66;;;18.04;100.00
70930;BME280;58588;48.102;19.682;2023-10-13T05:34:00;99682.66;;;18.13;100.00
70930;BME280;58588;48.102;19.682;2023-10-13T05:37:20;99682.22;;;18.28;100.00
70930;BME280;58588;48.102;19.682;2023-10-13T05:40:40;99693.47;;;18.19;100.00
70930;BME280;58588;48.102;19.682;2023-10-13T05:43:59;99695.97;;;18.21;100.00
70930;BME280;58588;48.102;19.682;2023-10-13T05:47:18;99701.75;;;18.13;100.00
70930;BME280;58588;48.102;19.682;2023-10-13T05:50:39;99701.94;;;18.00;100.00
70930;BME280;58588;48.102;19.682;2023-10-13T05:54:15;99704.28;;;17.96;100.00
70930;BME280;58588;48.102;19.682;2023-10-13T05:57:36;99699.66;;;17.97;100.00
70930;BME280;58588;48.102;19.682;2023-10-13T06:00:55;99708.28;;;18.42;100.00
70930;BME280;58588;48.102;19.682;2023-10-13T06:04:15;99710.81;;;18.55;100.00
70930;BME280;58588;48.102;19.682;2023-10-13T06:07:34;99716.69;;;18.40;100.00
70930;BME280;58588;48.102;19.682;2023-10-13T06:11:02;99717.91;;;18.44;100.00
70930;BME280;58588;48.102;19.682;2023-10-13T06:14:18;99729.78;;;18.68;100.00
70930;BME280;58588;48.102;19.682;2023-10-13T06:17:37;99721.41;;;18.63;100.00
70930;BME280;58588;48.102;19.682;2023-10-13T06:20:57;99728.78;;;18.63;100.00
70930;BME280;58588;48.102;19.682;2023-10-13T06:24:16;99723.44;;;18.98;100.00
70930;BME280;58588;48.102;19.682;2023-10-13T06:27:37;99729.28;;;19.13;100.00
70930;BME280;58588;48.102;19.682;2023-10-13T06:30:58;99730.81;;;19.21;100.00
70930;BME280;58588;48.102;19.682;2023-10-13T06:34:03;99730.72;;;19.28;100.00
70930;BME280;58588;48.102;19.682;2023-10-13T06:37:05;99727.41;;;19.37;100.00
70930;BME280;58588;48.102;19.682;2023-10-13T06:40:22;99733.31;;;19.34;100.00
70930;BME280;58588;48.102;19.682;2023-10-13T06:43:27;99735.59;;;19.61;100.00
70930;BME280;58588;48.102;19.682;2023-10-13T06:46:33;99736.19;;;19.74;100.00
70930;BME280;58588;48.102;19.682;2023-10-13T06:49:35;99750.34;;;19.83;100.00
70930;BME280;58588;48.102;19.682;2023-10-13T06:52:39;99751.06;;;19.67;100.00
70930;BME280;58588;48.102;19.682;2023-10-13T06:55:42;99749.88;;;19.86;100.00
70930;BME280;58588;48.102;19.682;2023-10-13T06:58:48;99764.69;;;20.02;100.00
70930;BME280;58588;48.102;19.682;2023-10-13T07:01:50;99763.94;;;20.18;100.00
70930;BME280;58588;48.102;19.682;2023-10-13T07:04:52;99769.75;;;20.34;100.00
70930;BME280;58588;48.102;19.682;2023-10-13T07:07:57;99767.88;;;20.22;100.00
70930;BME280;58588;48.102;19.682;2023-10-13T07:11:00;99774.97;;;20.47;100.00
70930;BME280;58588;48.102;19.682;2023-10-13T07:14:07;99769.66;;;20.28;100.00
70930;BME280;58588;48.102;19.682;2023-10-13T07:17:11;99767.59;;;20.47;100.00
70930;BME280;58588;48.102;19.682;2023-10-13T07:20:13;99771.22;;;20.65;100.00
70930;BME280;58588;48.102;19.682;2023-10-13T07:23:17;99766.59;;;20.82;100.00
70930;BME280;58588;48.102;19.682;2023-10-13T07:26:20;99766.03;;;20.40;100.00
70930;BME280;58588;48.102;19.682;2023-10-13T07:29:25;99760.44;;;20.46;100.00
70930;BME280;58588;48.102;19.682;2023-10-13T07:32:27;99757.94;;;20.73;100.00
70930;BME280;58588;48.102;19.682;2023-10-13T07:35:30;99758.97;;;20.84;100.00
70930;BME280;58588;48.102;19.682;2023-10-13T07:38:36;99760.72;;;20.90;100.00
70930;BME280;58588;48.102;19.682;2023-10-13T07:41:38;99771.25;;;20.98;100.00
70930;BME280;58588;48.102;19.682;2023-10-13T07:44:43;99776.69;;;20.93;100.00
70930;BME280;58588;48.102;19.682;2023-10-13T07:47:47;99765.03;;;21.03;100.00
70930;BME280;58588;48.102;19.682;2023-10-13T07:50:59;99768.50;;;21.44;100.00
70930;BME280;58588;48.102;19.682;2023-10-13T07:54:03;99766.81;;;21.26;100.00
70930;BME280;58588;48.102;19.682;2023-10-13T07:57:09;99762.41;;;21.08;100.00
70930;BME280;58588;48.102;19.682;2023-10-13T08:00:16;99759.47;;;20.98;100.00
70930;BME280;58588;48.102;19.682;2023-10-13T08:03:29;99759.63;;;21.36;100.00
70930;BME280;58588;48.102;19.682;2023-10-13T08:06:37;99763.59;;;21.46;100.00
70930;BME280;58588;48.102;19.682;2023-10-13T08:09:40;99763.00;;;21.60;100.00
70930;BME280;58588;48.102;19.682;2023-10-13T08:12:51;99752.75;;;21.73;100.00
70930;BME280;58588;48.102;19.682;2023-10-13T08:15:56;99754.44;;;21.96;100.00
70930;BME280;58588;48.102;19.682;2023-10-13T08:19:07;99748.97;;;22.17;100.00
70930;BME280;58588;48.102;19.682;2023-10-13T08:22:11;99762.00;;;22.49;100.00
70930;BME280;58588;48.102;19.682;2023-10-13T08:25:25;99762.56;;;22.51;100.00
70930;BME280;58588;48.102;19.682;2023-10-13T08:28:47;99761.75;;;22.51;100.00
70930;BME280;58588;48.102;19.682;2023-10-13T08:31:56;99751.72;;;22.66;100.00
70930;BME280;58588;48.102;19.682;2023-10-13T08:35:14;99764.78;;;22.54;100.00
70930;BME280;58588;48.102;19.682;2023-10-13T08:38:34;99767.78;;;22.75;100.00
70930;BME280;58588;48.102;19.682;2023-10-13T08:41:51;99759.69;;;23.17;100.00
70930;BME280;58588;48.102;19.682;2023-10-13T08:45:13;99756.38;;;23.20;100.00
70930;BME280;58588;48.102;19.682;2023-10-13T08:48:44;99762.59;;;23.37;100.00
70930;BME280;58588;48.102;19.682;2023-10-13T08:51:49;99760.13;;;23.73;97.82
70930;BME280;58588;48.102;19.682;2023-10-13T08:55:05;99765.38;;;23.80;97.54
70930;BME280;58588;48.102;19.682;2023-10-13T08:58:22;99757.03;;;24.12;96.40
70930;BME280;58588;48.102;19.682;2023-10-13T09:01:33;99761.78;;;24.26;92.80
70930;BME280;58588;48.102;19.682;2023-10-13T09:04:47;99764.66;;;24.57;95.25
70930;BME280;58588;48.102;19.682;2023-10-13T09:07:59;99757.75;;;24.49;93.83
70930;BME280;58588;48.102;19.682;2023-10-13T09:11:10;99766.34;;;24.68;92.61
70930;BME280;58588;48.102;19.682;2023-10-13T09:14:13;99755.97;;;25.31;93.77
70930;BME280;58588;48.102;19.682;2023-10-13T09:17:41;99767.28;;;25.30;89.94
70930;BME280;58588;48.102;19.682;2023-10-13T09:20:44;99755.91;;;25.82;91.69
70930;BME280;58588;48.102;19.682;2023-10-13T09:23:46;99759.00;;;25.40;87.52
70930;BME280;58588;48.102;19.682;2023-10-13T09:26:49;99764.78;;;25.49;86.32
70930;BME280;58588;48.102;19.682;2023-10-13T09:29:57;99769.44;;;25.89;86.79
70930;BME280;58588;48.102;19.682;2023-10-13T09:33:08;99762.28;;;25.68;81.87
70930;BME280;58588;48.102;19.682;2023-10-13T09:36:12;99750.38;;;25.72;81.53
70930;BME280;58588;48.102;19.682;2023-10-13T09:39:14;99755.94;;;25.57;80.50
70930;BME280;58588;48.102;19.682;2023-10-13T09:42:30;99750.88;;;26.15;74.97
70930;BME280;58588;48.102;19.682;2023-10-13T09:45:32;99756.22;;;25.81;77.36
70930;BME280;58588;48.102;19.682;2023-10-13T09:48:37;99757.25;;;26.00;73.34
70930;BME280;58588;48.102;19.682;2023-10-13T09:51:42;99754.63;;;26.39;74.62
70930;BME280;58588;48.102;19.682;2023-10-13T09:55:03;99748.38;;;26.68;75.26
70930;BME280;58588;48.102;19.682;2023-10-13T09:58:11;99751.59;;;26.36;71.59
70930;BME280;58588;48.102;19.682;2023-10-13T10:01:17;99751.41;;;26.72;71.82
70930;BME280;58588;48.102;19.682;2023-10-13T10:04:21;99751.25;;;26.97;76.46
70930;BME280;58588;48.102;19.682;2023-10-13T10:07:26;99753.38;;;27.10;72.19
70930;BME280;58588;48.102;19.682;2023-10-13T10:10:43;99750.22;;;27.27;71.94
70930;BME280;58588;48.102;19.682;2023-10-13T10:13:53;99746.84;;;27.35;73.16
70930;BME280;58588;48.102;19.682;2023-10-13T10:17:04;99736.31;;;27.32;71.87
70930;BME280;58588;48.102;19.682;2023-10-13T10:20:09;99732.84;;;27.80;72.32
70930;BME280;58588;48.102;19.682;2023-10-13T10:23:25;99724.41;;;28.14;68.12
70930;BME280;58588;48.102;19.682;2023-10-13T10:26:30;99721.09;;;28.36;68.55
70930;BME280;58588;48.102;19.682;2023-10-13T10:29:32;99722.81;;;27.26;68.86
70930;BME280;58588;48.102;19.682;2023-10-13T10:32:36;99716.69;;;27.87;70.36
70930;BME280;58588;48.102;19.682;2023-10-13T10:35:41;99708.16;;;27.25;69.07
70930;BME280;58588;48.102;19.682;2023-10-13T10:38:55;99701.59;;;27.74;68.35
70930;BME280;58588;48.102;19.682;2023-10-13T10:42:08;99694.94;;;28.42;68.54
70930;BME280;58588;48.102;19.682;2023-10-13T10:45:15;99697.25;;;28.35;66.63
70930;BME280;58588;48.102;19.682;2023-10-13T10:48:22;99699.13;;;28.58;66.24
70930;BME280;58588;48.102;19.682;2023-10-13T10:51:33;99691.31;;;28.60;66.67
70930;BME280;58588;48.102;19.682;2023-10-13T10:54:36;99695.28;;;28.35;66.26
70930;BME280;58588;48.102;19.682;2023-10-13T10:57:44;99693.00;;;28.61;67.18
70930;BME280;58588;48.102;19.682;2023-10-13T11:00:49;99688.72;;;28.69;67.94
70930;BME280;58588;48.102;19.682;2023-10-13T11:04:04;99692.38;;;28.64;64.07
70930;BME280;58588;48.102;19.682;2023-10-13T11:07:20;99699.81;;;28.50;66.16
70930;BME280;58588;48.102;19.682;2023-10-13T11:10:24;99699.50;;;28.70;64.10
70930;BME280;58588;48.102;19.682;2023-10-13T11:13:40;99691.69;;;28.72;65.65
70930;BME280;58588;48.102;19.682;2023-10-13T11:16:52;99684.44;;;28.58;63.19
70930;BME280;58588;48.102;19.682;2023-10-13T11:19:55;99687.22;;;28.39;64.99
70930;BME280;58588;48.102;19.682;2023-10-13T11:22:57;99683.25;;;28.45;64.28
70930;BME280;58588;48.102;19.682;2023-10-13T11:26:01;99676.84;;;28.25;64.67
70930;BME280;58588;48.102;19.682;2023-10-13T11:29:04;99671.59;;;28.43;63.81
70930;BME280;58588;48.102;19.682;2023-10-13T11:32:10;99668.59;;;29.42;62.90
70930;BME280;58588;48.102;19.682;2023-10-13T11:35:20;99668.44;;;29.66;60.92
70930;BME280;58588;48.102;19.682;2023-10-13T11:38:25;99676.78;;;29.20;61.13
70930;BME280;58588;48.102;19.682;2023-10-13T11:41:28;99674.66;;;29.30;61.54
70930;BME280;58588;48.102;19.682;2023-10-13T11:44:36;99675.41;;;29.03;61.31
70930;BME280;58588;48.102;19.682;2023-10-13T11:47:43;99665.25;;;29.13;61.43
70930;BME280;58588;48.102;19.682;2023-10-13T11:50:59;99671.69;;;28.75;59.76
70930;BME280;58588;48.102;19.682;2023-10-13T11:54:01;99664.53;;;28.88;60.30
70930;BME280;58588;48.102;19.682;2023-10-13T11:57:04;99658.38;;;29.70;61.80
70930;BME280;58588;48.102;19.682;2023-10-13T12:00:08;99663.22;;;29.18;59.95
70930;BME280;58588;48.102;19.682;2023-10-13T12:03:26;99668.19;;;29.35;59.30
70930;BME280;58588;48.102;19.682;2023-10-13T12:06:46;99651.47;;;29.08;60.29
70930;BME280;58588;48.102;19.682;2023-10-13T12:10:03;99642.31;;;29.07;60.08
70930;BME280;58588;48.102;19.682;2023-10-13T12:13:08;99651.22;;;29.50;60.70
70930;BME280;58588;48.102;19.682;2023-10-13T12:16:11;99640.19;;;29.18;60.51
70930;BME280;58588;48.102;19.682;2023-10-13T12:19:13;99647.81;;;28.93;60.55
70930;BME280;58588;48.102;19.682;2023-10-13T12:22:17;99643.16;;;28.89;61.11
70930;BME280;58588;48.102;19.682;2023-10-13T12:25:26;99627.09;;;28.53;65.66
70930;BME280;58588;48.102;19.682;2023-10-13T12:28:46;99629.53;;;28.54;65.04
70930;BME280;58588;48.102;19.682;2023-10-13T12:31:52;99642.94;;;29.04;63.06
70930;BME280;58588;48.102;19.682;2023-10-13T12:35:08;99635.44;;;28.86;63.54
70930;BME280;58588;48.102;19.682;2023-10-13T12:38:27;99632.81;;;28.94;63.90
70930;BME280;58588;48.102;19.682;2023-10-13T12:41:37;99627.53;;;29.25;64.93
70930;BME280;58588;48.102;19.682;2023-10-13T12:44:58;99623.63;;;29.26;63.24
70930;BME280;58588;48.102;19.682;2023-10-13T12:48:17;99623.00;;;29.29;62.75
70930;BME280;58588;48.102;19.682;2023-10-13T12:51:36;99623.59;;;28.99;62.91
70930;BME280;58588;48.102;19.682;2023-10-13T12:54:52;99621.41;;;28.96;63.09
70930;BME280;58588;48.102;19.682;2023-10-13T12:58:06;99622.38;;;29.19;64.88
70930;BME280;58588;48.102;19.682;2023-10-13T13:01:12;99608.72;;;29.50;63.93
70930;BME280;58588;48.102;19.682;2023-10-13T13:04:18;99606.03;;;29.17;64.42
70930;BME280;58588;48.102;19.682;2023-10-13T13:07:21;99613.25;;;28.86;64.86
70930;BME280;58588;48.102;19.682;2023-10-13T13:10:29;99612.09;;;28.87;63.93
70930;BME280;58588;48.102;19.682;2023-10-13T13:13:36;99603.75;;;29.19;63.33
70930;BME280;58588;48.102;19.682;2023-10-13T13:16:42;99607.34;;;29.20;63.56
70930;BME280;58588;48.102;19.682;2023-10-13T13:19:48;99597.38;;;29.05;64.68
70930;BME280;58588;48.102;19.682;2023-10-13T13:22:52;99591.28;;;29.63;65.37
70930;BME280;58588;48.102;19.682;2023-10-13T13:25:55;99596.75;;;30.04;63.60
70930;BME280;58588;48.102;19.682;2023-10-13T13:28:58;99592.19;;;29.58;63.37
70930;BME280;58588;48.102;19.682;2023-10-13T13:32:02;99597.50;;;28.81;62.59
70930;BME280;58588;48.102;19.682;2023-10-13T13:35:06;99593.06;;;28.80;64.18
70930;BME280;58588;48.102;19.682;2023-10-13T13:38:08;99587.63;;;29.21;64.42
70930;BME280;58588;48.102;19.682;2023-10-13T13:41:22;99583.22;;;29.34;64.14
70930;BME280;58588;48.102;19.682;2023-10-13T13:44:24;99587.19;;;29.97;62.28
70930;BME280;58588;48.102;19.682;2023-10-13T13:47:37;99579.25;;;30.04;63.08
70930;BME280;58588;48.102;19.682;2023-10-13T13:50:39;99580.50;;;30.11;62.87
70930;BME280;58588;48.102;19.682;2023-10-13T13:53:42;99568.91;;;30.32;62.01
70930;BME280;58588;48.102;19.682;2023-10-13T13:56:48;99570.91;;;30.40;61.64
70930;BME280;58588;48.102;19.682;2023-10-13T13:59:52;99577.28;;;30.18;61.91
70930;BME280;58588;48.102;19.682;2023-10-13T14:02:55;99569.09;;;29.85;62.70
70930;BME280;58588;48.102;19.682;2023-10-13T14:05:58;99567.69;;;29.61;61.55
70930;BME280;58588;48.102;19.682;2023-10-13T14:09:01;99564.25;;;29.09;63.98
70930;BME280;58588;48.102;19.682;2023-10-13T14:12:06;99561.91;;;28.69;64.67
70930;BME280;58588;48.102;19.682;2023-10-13T14:15:25;99562.25;;;28.49;65.18
70930;BME280;58588;48.102;19.682;2023-10-13T14:18:29;99556.25;;;28.23;67.20
70930;BME280;58588;48.102;19.682;2023-10-13T14:21:32;99565.38;;;27.86;68.04
70930;BME280;58588;48.102;19.682;2023-10-13T14:24:35;99559.84;;;27.86;67.55
70930;BME280;58588;48.102;19.682;2023-10-13T14:27:43;99558.94;;;27.71;69.05
70930;BME280;58588;48.102;19.682;2023-10-13T14:30:45;99557.47;;;27.55;70.68
70930;BME280;58588;48.102;19.682;2023-10-13T14:33:49;99556.56;;;27.60;71.37
70930;BME280;58588;48.102;19.682;2023-10-13T14:36:51;99563.38;;;27.91;71.46
70930;BME280;58588;48.102;19.682;2023-10-13T14:39:55;99554.38;;;27.81;70.93
70930;BME280;58588;48.102;19.682;2023-10-13T14:42:57;99557.50;;;27.74;73.44
70930;BME280;58588;48.102;19.682;2023-10-13T14:45:59;99552.13;;;27.83;69.76
70930;BME280;58588;48.102;19.682;2023-10-13T14:49:03;99561.88;;;27.80;72.59
70930;BME280;58588;48.102;19.682;2023-10-13T14:52:05;99551.16;;;27.50;72.17
70930;BME280;58588;48.102;19.682;2023-10-13T14:55:08;99560.44;;;27.59;72.34
70930;BME280;58588;48.102;19.682;2023-10-13T14:58:19;99560.00;;;28.13;70.26
70930;BME280;58588;48.102;19.682;2023-10-13T15:01:23;99564.28;;;28.90;67.98
70930;BME280;58588;48.102;19.682;2023-10-13T15:04:28;99556.44;;;28.64;69.93
70930;BME280;58588;48.102;19.682;2023-10-13T15:07:33;99547.41;;;29.19;68.46
70930;BME280;58588;48.102;19.682;2023-10-13T15:10:35;99545.97;;;29.21;69.05
70930;BME280;58588;48.102;19.682;2023-10-13T15:13:37;99553.66;;;28.64;71.79
70930;BME280;58588;48.102;19.682;2023-10-13T15:16:39;99554.06;;;27.82;74.43
70930;BME280;58588;48.102;19.682;2023-10-13T15:19:44;99557.28;;;27.70;75.58
70930;BME280;58588;48.102;19.682;2023-10-13T15:22:46;99550.13;;;27.64;75.38
70930;BME280;58588;48.102;19.682;2023-10-13T15:25:49;99553.19;;;27.63;75.83
70930;BME280;58588;48.102;19.682;2023-10-13T15:28:52;99553.16;;;26.91;78.81
70930;BME280;58588;48.102;19.682;2023-10-13T15:31:56;99554.47;;;26.35;81.27
70930;BME280;58588;48.102;19.682;2023-10-13T15:35:29;99557.19;;;26.01;82.38
70930;BME280;58588;48.102;19.682;2023-10-13T15:38:30;99551.09;;;25.50;84.97
70930;BME280;58588;48.102;19.682;2023-10-13T15:41:32;99556.22;;;25.07;87.08
70930;BME280;58588;48.102;19.682;2023-10-13T15:44:35;99543.25;;;24.92;88.78
70930;BME280;58588;48.102;19.682;2023-10-13T15:47:37;99549.59;;;24.82;88.98
70930;BME280;58588;48.102;19.682;2023-10-13T15:50:40;99554.06;;;24.38;91.43
70930;BME280;58588;48.102;19.682;2023-10-13T15:53:43;99544.09;;;24.32;92.26
70930;BME280;58588;48.102;19.682;2023-10-13T15:56:46;99554.28;;;24.16;92.02
70930;BME280;58588;48.102;19.682;2023-10-13T15:59:48;99555.31;;;23.84;92.78
70930;BME280;58588;48.102;19.682;2023-10-13T16:02:51;99547.72;;;23.44;94.39
70930;BME280;58588;48.102;19.682;2023-10-13T16:05:56;99552.38;;;23.33;94.70
70930;BME280;58588;48.102;19.682;2023-10-13T16:08:58;99553.88;;;23.04;96.87
70930;BME280;58588;48.102;19.682;2023-10-13T16:12:00;99553.00;;;22.98;96.06
70930;BME280;58588;48.102;19.682;2023-10-13T16:15:02;99550.91;;;22.78;96.63
70930;BME280;58588;48.102;19.682;2023-10-13T16:18:06;99550.75;;;22.58;97.97